Jawor — C6YH8 — position and weather

sailwx.info

Track history (hours):
 
Tides and Currents Weather Stations Pressure Air Temp Water Temp Dewpoint Dewpoint Depression Visibility Wind Speed Wind Dir Waves Ship Positions

Jawor

Last reported at 2017-Feb-19 07:31 UTC. Time now 2017-Feb-21 14:50 UTC.
Position N 36°00' W 005°08'.

Length 229 m; draft 13 m.

Type: Cargo ship. MMSI: 311034100.

Date/timePositionNaut miles runAvg speedWind from/ knotsBaromVisibWave heightAir tempDewpointWater temp
2017-Feb-19 07:31N 36°00' W 005°08'1313.2
2017-Feb-19 06:33N 35°59' W 005°24'1312.5
2017-Feb-19 05:32N 35°56' W 005°39'22710.6
2017-Feb-18 08:14N 37°42' W 009°50'1111.7
2017-Feb-18 07:18N 37°52' W 009°53'911.7
2017-Feb-18 06:31N 38°01' W 009°55'1111.8
2017-Feb-18 05:33N 38°12' W 009°58'1211.8
2017-Feb-18 04:31N 38°24' W 010°02'1212.1
2017-Feb-18 03:33N 38°36' W 010°05'1211.8
2017-Feb-18 02:33N 38°48' W 010°07'1212.0
2017-Feb-18 01:33N 38°60' W 010°07'1212.3
2017-Feb-18 00:33N 39°12' W 010°08'1312.0
2017-Feb-17 23:30N 39°24' W 010°07'1112.0
2017-Feb-17 22:33N 39°36' W 010°06'1212.1
2017-Feb-17 21:33N 39°48' W 010°06'1711.9
2017-Feb-17 20:07N 40°05' W 010°05'712.1
2017-Feb-17 19:33N 40°12' W 010°05'1211.9
2017-Feb-17 18:31N 40°24' W 010°06'1111.9
2017-Feb-17 17:33N 40°36' W 010°06'  
2017-Feb-15 11:33N 49°39' W 003°50'1210.9
2017-Feb-15 10:29N 49°45' W 003°34'910.0
2017-Feb-15 09:33N 49°49' W 003°22'10 9.8
2017-Feb-15 08:33N 49°54' W 003°08'1010.3
2017-Feb-15 07:33N 49°59' W 002°54'1211.6
2017-Feb-15 06:30N 50°03' W 002°36'8413.1
2017-Feb-15 00:03N 50°25' W 000°29'5 9.2
2017-Feb-14 23:33N 50°26' W 000°22'3110.2
2017-Feb-14 20:33N 50°35' E 000°24'1212.4
2017-Feb-14 19:33N 50°40' E 000°42'1812.5
2017-Feb-14 18:05N 50°52' E 001°05'611.7
2017-Feb-14 17:34N 50°56' E 001°12'1110.5
2017-Feb-14 16:33N 51°02' E 001°25'9 8.7
2017-Feb-14 15:33N 51°08' E 001°35'8 8.0
2017-Feb-14 14:33N 51°13' E 001°45'9 9.1
2017-Feb-14 13:33N 51°21' E 001°52'1111.0
2017-Feb-14 12:34N 51°30' E 002°02'1313.0
2017-Feb-14 11:33N 51°40' E 002°15'46511.1
2017-Feb-12 17:27N 57°49' E 010°28'1011.5
2017-Feb-12 16:33N 57°48' E 010°48'1111.1
2017-Feb-12 15:33N 57°43' E 011°06'1111.1
2017-Feb-12 14:33N 57°38' E 011°25'9 9.2
2017-Feb-12 13:33N 57°35' E 011°41'0 0.4
2017-Feb-12 12:33N 57°35' E 011°40'0 0.0
2017-Feb-12 11:33N 57°35' E 011°40'0 0.0
2017-Feb-12 10:33N 57°35' E 011°40'0 0.0
2017-Feb-12 09:33N 57°35' E 011°40'0 0.1
2017-Feb-12 08:33N 57°35' E 011°40'1 0.7
2017-Feb-12 07:33N 57°34' E 011°39'5 4.5
2017-Feb-12 06:33N 57°30' E 011°38'10 9.7
2017-Feb-12 05:33N 57°20' E 011°37'1110.5
2017-Feb-12 04:33N 57°10' E 011°38'1110.3
2017-Feb-12 03:31N 56°60' E 011°45'46 8.5
2017-Feb-11 22:08N 56°19' E 011°06'710.7
2017-Feb-11 21:27N 56°12' E 011°06'5910.1
2017-Feb-11 15:33N 55°12' E 011°06'10 9.9
2017-Feb-11 14:33N 55°03' E 011°00'1010.5
2017-Feb-11 13:33N 54°54' E 010°51'1111.0
2017-Feb-11 12:33N 54°43' E 010°47'1010.3
2017-Feb-11 11:33N 54°36' E 010°60'1212.4
2017-Feb-11 10:33N 54°33' E 011°21'1212.1
2017-Feb-11 09:33N 54°28' E 011°40'1212.2
2017-Feb-11 08:34N 54°21' E 011°57'11 9.5
2017-Feb-11 07:26N 54°11' E 012°05'3 2.7
2017-Feb-11 06:30N 54°09' E 012°07'0 0.0
2017-Feb-11 05:21N 54°09' E 012°07'0 0.0
2017-Feb-11 04:28N 54°09' E 012°07'0 0.0
2017-Feb-11 03:31N 54°09' E 012°07'0 0.0
2017-Feb-11 02:32N 54°09' E 012°07'0 0.0
2017-Feb-11 00:32N 54°09' E 012°07'0 0.0
2017-Feb-10 18:17N 54°09' E 012°07'0 0.0
2017-Feb-10 17:32N 54°09' E 012°07'0 0.0
2017-Feb-10 16:32N 54°09' E 012°07'0 0.0
2017-Feb-10 14:32N 54°09' E 012°07'0 0.0
2017-Feb-10 13:32N 54°09' E 012°07'0 0.0
2017-Feb-10 12:29N 54°09' E 012°07'0 0.0
2017-Feb-10 11:32N 54°09' E 012°07'0 0.0
2017-Feb-10 10:32N 54°09' E 012°07'0 0.0
2017-Feb-10 09:05N 54°09' E 012°07'0 0.0
2017-Feb-10 08:29N 54°09' E 012°07'0 0.0
2017-Feb-10 07:29N 54°09' E 012°07'0 0.0
2017-Feb-10 06:32N 54°09' E 012°07'0 0.0
2017-Feb-10 05:32N 54°09' E 012°07'0 0.0
2017-Feb-10 02:32N 54°09' E 012°07'0 0.0
2017-Feb-10 01:32N 54°09' E 012°07'0 0.0
2017-Feb-10 00:32N 54°09' E 012°07'0 0.0
2017-Feb-09 23:32N 54°09' E 012°07'0 0.0
2017-Feb-09 22:32N 54°09' E 012°07'0 0.0
2017-Feb-09 21:26N 54°09' E 012°07'0 0.0
2017-Feb-09 20:14N 54°09' E 012°07'0 0.0
2017-Feb-09 19:32N 54°09' E 012°07'0 0.0
2017-Feb-09 17:29N 54°09' E 012°07'0 0.0
2017-Feb-09 16:17N 54°09' E 012°07'0 0.0
2017-Feb-09 11:32N 54°09' E 012°07'0 0.0
2017-Feb-09 10:32N 54°09' E 012°07'  
Track history (hours):
 
Tides and Currents Weather Stations Pressure Air Temp Water Temp Dewpoint Dewpoint Depression Visibility Wind Speed Wind Dir Waves Ship Positions

Jawor

Last reported at 2017-Feb-19 07:31 UTC. Time now 2017-Feb-21 14:50 UTC.
Position N 36°00' W 005°08'.

Length 229 m; draft 13 m.

Type: Cargo ship. MMSI: 311034100.

Date/timePositionNaut miles runAvg speedWind from/ knotsBaromVisibWave heightAir tempDewpointWater temp
2017-Feb-19 07:31N 36°00' W 005°08'1313.2
2017-Feb-19 06:33N 35°59' W 005°24'1312.5
2017-Feb-19 05:32N 35°56' W 005°39'22710.6
2017-Feb-18 08:14N 37°42' W 009°50'1111.7
2017-Feb-18 07:18N 37°52' W 009°53'911.7
2017-Feb-18 06:31N 38°01' W 009°55'1111.8
2017-Feb-18 05:33N 38°12' W 009°58'1211.8
2017-Feb-18 04:31N 38°24' W 010°02'1212.1
2017-Feb-18 03:33N 38°36' W 010°05'1211.8
2017-Feb-18 02:33N 38°48' W 010°07'1212.0
2017-Feb-18 01:33N 38°60' W 010°07'1212.3
2017-Feb-18 00:33N 39°12' W 010°08'1312.0
2017-Feb-17 23:30N 39°24' W 010°07'1112.0
2017-Feb-17 22:33N 39°36' W 010°06'1212.1
2017-Feb-17 21:33N 39°48' W 010°06'1711.9
2017-Feb-17 20:07N 40°05' W 010°05'712.1
2017-Feb-17 19:33N 40°12' W 010°05'1211.9
2017-Feb-17 18:31N 40°24' W 010°06'1111.9
2017-Feb-17 17:33N 40°36' W 010°06'  
2017-Feb-15 11:33N 49°39' W 003°50'1210.9
2017-Feb-15 10:29N 49°45' W 003°34'910.0
2017-Feb-15 09:33N 49°49' W 003°22'10 9.8
2017-Feb-15 08:33N 49°54' W 003°08'1010.3
2017-Feb-15 07:33N 49°59' W 002°54'1211.6
2017-Feb-15 06:30N 50°03' W 002°36'8413.1
2017-Feb-15 00:03N 50°25' W 000°29'5 9.2
2017-Feb-14 23:33N 50°26' W 000°22'3110.2
2017-Feb-14 20:33N 50°35' E 000°24'1212.4
2017-Feb-14 19:33N 50°40' E 000°42'1812.5
2017-Feb-14 18:05N 50°52' E 001°05'611.7
2017-Feb-14 17:34N 50°56' E 001°12'1110.5
2017-Feb-14 16:33N 51°02' E 001°25'9 8.7
2017-Feb-14 15:33N 51°08' E 001°35'8 8.0
2017-Feb-14 14:33N 51°13' E 001°45'9 9.1
2017-Feb-14 13:33N 51°21' E 001°52'1111.0
2017-Feb-14 12:34N 51°30' E 002°02'1313.0
2017-Feb-14 11:33N 51°40' E 002°15'46511.1
2017-Feb-12 17:27N 57°49' E 010°28'1011.5
2017-Feb-12 16:33N 57°48' E 010°48'1111.1
2017-Feb-12 15:33N 57°43' E 011°06'1111.1
2017-Feb-12 14:33N 57°38' E 011°25'9 9.2
2017-Feb-12 13:33N 57°35' E 011°41'0 0.4
2017-Feb-12 12:33N 57°35' E 011°40'0 0.0
2017-Feb-12 11:33N 57°35' E 011°40'0 0.0
2017-Feb-12 10:33N 57°35' E 011°40'0 0.0
2017-Feb-12 09:33N 57°35' E 011°40'0 0.1
2017-Feb-12 08:33N 57°35' E 011°40'1 0.7
2017-Feb-12 07:33N 57°34' E 011°39'5 4.5
2017-Feb-12 06:33N 57°30' E 011°38'10 9.7
2017-Feb-12 05:33N 57°20' E 011°37'1110.5
2017-Feb-12 04:33N 57°10' E 011°38'1110.3
2017-Feb-12 03:31N 56°60' E 011°45'46 8.5
2017-Feb-11 22:08N 56°19' E 011°06'710.7
2017-Feb-11 21:27N 56°12' E 011°06'5910.1
2017-Feb-11 15:33N 55°12' E 011°06'10 9.9
2017-Feb-11 14:33N 55°03' E 011°00'1010.5
2017-Feb-11 13:33N 54°54' E 010°51'1111.0
2017-Feb-11 12:33N 54°43' E 010°47'1010.3
2017-Feb-11 11:33N 54°36' E 010°60'1212.4
2017-Feb-11 10:33N 54°33' E 011°21'1212.1
2017-Feb-11 09:33N 54°28' E 011°40'1212.2
2017-Feb-11 08:34N 54°21' E 011°57'11 9.5
2017-Feb-11 07:26N 54°11' E 012°05'3 2.7
2017-Feb-11 06:30N 54°09' E 012°07'0 0.0
2017-Feb-11 05:21N 54°09' E 012°07'0 0.0
2017-Feb-11 04:28N 54°09' E 012°07'0 0.0
2017-Feb-11 03:31N 54°09' E 012°07'0 0.0
2017-Feb-11 02:32N 54°09' E 012°07'0 0.0
2017-Feb-11 00:32N 54°09' E 012°07'0 0.0
2017-Feb-10 18:17N 54°09' E 012°07'0 0.0
2017-Feb-10 17:32N 54°09' E 012°07'0 0.0
2017-Feb-10 16:32N 54°09' E 012°07'0 0.0
2017-Feb-10 14:32N 54°09' E 012°07'0 0.0
2017-Feb-10 13:32N 54°09' E 012°07'0 0.0
2017-Feb-10 12:29N 54°09' E 012°07'0 0.0
2017-Feb-10 11:32N 54°09' E 012°07'0 0.0
2017-Feb-10 10:32N 54°09' E 012°07'0 0.0
2017-Feb-10 09:05N 54°09' E 012°07'0 0.0
2017-Feb-10 08:29N 54°09' E 012°07'0 0.0
2017-Feb-10 07:29N 54°09' E 012°07'0 0.0
2017-Feb-10 06:32N 54°09' E 012°07'0 0.0
2017-Feb-10 05:32N 54°09' E 012°07'0 0.0
2017-Feb-10 02:32N 54°09' E 012°07'0 0.0
2017-Feb-10 01:32N 54°09' E 012°07'0 0.0
2017-Feb-10 00:32N 54°09' E 012°07'0 0.0
2017-Feb-09 23:32N 54°09' E 012°07'0 0.0
2017-Feb-09 22:32N 54°09' E 012°07'0 0.0
2017-Feb-09 21:26N 54°09' E 012°07'0 0.0
2017-Feb-09 20:14N 54°09' E 012°07'0 0.0
2017-Feb-09 19:32N 54°09' E 012°07'0 0.0
2017-Feb-09 17:29N 54°09' E 012°07'0 0.0
2017-Feb-09 16:17N 54°09' E 012°07'0 0.0
2017-Feb-09 11:32N 54°09' E 012°07'0 0.0
2017-Feb-09 10:32N 54°09' E 012°07'  

Dump ship's entire track history